Time;durP1;ratioP1;P1;durP2;ratioP2;P2;SDS_P1;SDS_P2;PMS_P1;PMS_P2;Temp;Humidity;BMP_temperature;BMP_pressure;BME280_temperature;BME280_humidity;BME280_pressure;Samples;Min_cycle;Max_cycle;Signal;HPM_P1;HPM_P2
2022/03/10 00:01:18;;;;;;;36.88;20.92;;;;;;;2.86;100.00;102208.81;5305678;28;20130;-83
2022/03/10 00:03:50;;;;;;;35.35;20.60;;;;;;;2.75;100.00;102214.50;5281573;28;20054;-84
2022/03/10 00:06:21;;;;;;;34.63;20.90;;;;;;;2.59;100.00;102199.28;5296959;28;20017;-83
2022/03/10 00:08:52;;;;;;;32.75;20.17;;;;;;;2.80;100.00;102233.66;5296406;28;20442;-82
2022/03/10 00:11:24;;;;;;;35.55;21.70;;;;;;;2.78;100.00;102224.94;5269958;28;20034;-82
2022/03/10 00:13:55;;;;;;;32.92;20.45;;;;;;;2.68;100.00;102227.06;5257260;28;20029;-82
2022/03/10 00:16:27;;;;;;;37.80;22.35;;;;;;;2.55;100.00;102213.50;5272862;28;20026;-83
2022/03/10 00:18:58;;;;;;;35.05;20.05;;;;;;;2.61;100.00;102223.81;5256329;28;20025;-83
2022/03/10 00:21:30;;;;;;;36.40;20.83;;;;;;;2.47;100.00;102220.81;5285027;28;20417;-83
2022/03/10 00:24:01;;;;;;;32.70;20.90;;;;;;;2.44;100.00;102220.94;5281217;28;20037;-83
2022/03/10 00:26:33;;;;;;;37.78;21.58;;;;;;;2.38;100.00;102219.38;5297404;28;20017;-83
2022/03/10 00:29:05;;;;;;;38.20;21.65;;;;;;;2.47;100.00;102239.25;5298688;28;20024;-83
2022/03/10 00:31:36;;;;;;;33.88;20.35;;;;;;;2.36;100.00;102223.84;5298061;28;20376;-82
2022/03/10 00:34:08;;;;;;;33.60;20.48;;;;;;;2.23;100.00;102212.91;5297867;28;20048;-83
2022/03/10 00:36:40;;;;;;;33.58;20.48;;;;;;;2.20;100.00;102206.88;5294662;28;20087;-83
2022/03/10 00:39:12;;;;;;;34.70;20.63;;;;;;;2.26;100.00;102232.97;5298402;28;20089;-83
2022/03/10 00:41:43;;;;;;;42.63;21.95;;;;;;;2.21;100.00;102229.66;5297125;28;20095;-82
2022/03/10 00:44:14;;;;;;;37.13;21.42;;;;;;;2.20;100.00;102235.84;5297864;28;20025;-83
2022/03/10 00:46:46;;;;;;;37.10;21.70;;;;;;;2.20;100.00;102235.84;5282754;28;20053;-83
2022/03/10 00:49:17;;;;;;;34.03;21.05;;;;;;;2.24;100.00;102233.06;5290464;28;20036;-83
2022/03/10 00:51:50;;;;;;;34.65;21.13;;;;;;;2.32;100.00;102238.03;5290347;28;20109;-84
2022/03/10 00:54:22;;;;;;;37.33;21.15;;;;;;;2.33;100.00;102237.13;5285549;28;20041;-82
2022/03/10 00:56:53;;;;;;;36.75;21.13;;;;;;;2.39;100.00;102244.81;5293073;28;20017;-83
2022/03/10 00:59:24;;;;;;;33.08;20.85;;;;;;;2.38;100.00;102243.06;5293877;28;20029;-84
2022/03/10 01:01:55;;;;;;;38.45;22.17;;;;;;;2.39;100.00;102239.53;5296007;28;20029;-84
2022/03/10 01:04:27;;;;;;;37.80;21.85;;;;;;;2.36;100.00;102247.53;5295072;28;20032;-83
2022/03/10 01:06:58;;;;;;;34.53;21.52;;;;;;;2.36;100.00;102244.06;5291795;28;20041;-84
2022/03/10 01:09:29;;;;;;;39.33;21.90;;;;;;;2.27;100.00;102232.06;5281494;28;20087;-84
2022/03/10 01:12:01;;;;;;;34.78;22.60;;;;;;;2.26;100.00;102236.50;5282966;28;20762;-84
2022/03/10 01:14:32;;;;;;;38.17;22.25;;;;;;;2.28;100.00;102233.81;5283147;28;20422;-84
2022/03/10 01:17:04;;;;;;;37.75;22.67;;;;;;;2.33;100.00;102241.53;5265384;28;20036;-84
2022/03/10 01:19:35;;;;;;;36.28;21.33;;;;;;;2.29;100.00;102245.19;5283537;28;20020;-84
2022/03/10 01:22:07;;;;;;;36.03;22.05;;;;;;;2.32;100.00;102243.31;5282801;28;20072;-84
2022/03/10 01:24:41;;;;;;;36.38;22.38;;;;;;;2.21;100.00;102238.44;5280238;28;20021;-84
2022/03/10 01:27:12;;;;;;;38.47;23.17;;;;;;;2.16;100.00;102244.78;5279645;28;20029;-84
2022/03/10 01:29:43;;;;;;;35.35;21.73;;;;;;;2.11;100.00;102233.53;5283255;28;20037;-84
2022/03/10 01:32:15;;;;;;;36.25;22.13;;;;;;;2.14;100.00;102249.22;5282806;28;20043;-83
2022/03/10 01:34:46;;;;;;;34.97;21.58;;;;;;;2.14;100.00;102246.56;5282890;28;20095;-83
2022/03/10 01:37:18;;;;;;;36.75;23.45;;;;;;;2.08;100.00;102240.59;5282207;28;20052;-84
2022/03/10 01:39:49;;;;;;;36.83;21.58;;;;;;;1.97;100.00;102228.75;5282547;28;20073;-84
2022/03/10 01:42:22;;;;;;;36.20;21.80;;;;;;;1.88;100.00;102225.53;5264093;28;20033;-83
2022/03/10 01:44:55;;;;;;;35.58;21.85;;;;;;;1.92;100.00;102239.44;5283126;28;20025;-84
2022/03/10 01:47:26;;;;;;;38.35;22.88;;;;;;;1.91;100.00;102236.84;5283084;28;20037;-84
2022/03/10 01:49:57;;;;;;;37.20;22.73;;;;;;;1.86;100.00;102237.88;5278052;28;20025;-83
2022/03/10 01:52:30;;;;;;;41.40;22.83;;;;;;;1.74;100.00;102227.75;5281839;28;20036;-83
2022/03/10 01:55:02;;;;;;;36.25;22.38;;;;;;;1.77;100.00;102240.81;5281974;28;20064;-83
2022/03/10 01:57:33;;;;;;;35.83;22.70;;;;;;;1.77;100.00;102243.44;5280943;28;20034;-83
2022/03/10 02:00:06;;;;;;;35.45;22.25;;;;;;;1.75;100.00;102229.47;5279352;28;20033;-84
2022/03/10 02:02:37;;;;;;;36.53;22.35;;;;;;;1.74;100.00;102225.13;5263285;28;20056;-83
2022/03/10 02:05:09;;;;;;;35.53;22.13;;;;;;;1.72;100.00;102219.06;5280411;28;20438;-83
2022/03/10 02:10:35;;;;;;;38.20;23.10;;;;;;;1.80;100.00;102230.16;5278641;28;20494;-83
2022/03/10 02:13:06;;;;;;;35.90;22.17;;;;;;;1.78;100.00;102234.63;5282548;28;20033;-83
2022/03/10 02:18:27;;;;;;;37.50;23.20;;;;;;;1.74;100.00;102227.75;5279245;28;20037;-84
2022/03/10 02:20:59;;;;;;;37.42;22.67;;;;;;;1.67;100.00;102210.47;5277046;28;20090;-83
2022/03/10 02:23:30;;;;;;;37.92;22.60;;;;;;;1.74;100.00;102221.66;5278998;28;20065;-83
2022/03/10 02:26:02;;;;;;;38.55;22.02;;;;;;;1.71;100.00;102219.97;5263181;28;20066;-84
2022/03/10 02:28:34;;;;;;;37.70;24.00;;;;;;;1.61;100.00;102219.41;5279632;28;20029;-84
2022/03/10 02:31:05;;;;;;;37.85;23.60;;;;;;;1.61;100.00;102221.19;5276707;28;20370;-83
2022/03/10 02:33:37;;;;;;;36.97;23.27;;;;;;;1.60;100.00;102222.09;5276520;28;20044;-83
2022/03/10 02:36:08;;;;;;;40.80;23.50;;;;;;;1.63;100.00;102228.13;5275506;28;20045;-84
2022/03/10 02:38:40;;;;;;;38.55;23.15;;;;;;;1.63;100.00;102229.88;5279944;28;20449;-84
2022/03/10 02:41:11;;;;;;;38.90;23.20;;;;;;;1.66;100.00;102233.25;5279949;28;20029;-84
2022/03/10 02:43:43;;;;;;;35.88;21.83;;;;;;;1.55;100.00;102210.88;5274731;28;20033;-83
2022/03/10 02:46:14;;;;;;;39.20;22.85;;;;;;;1.60;100.00;102232.63;5280316;28;20029;-83
2022/03/10 02:48:46;;;;;;;42.72;24.00;;;;;;;1.60;100.00;102228.22;5280573;28;20443;-84
2022/03/10 02:51:17;;;;;;;40.03;22.60;;;;;;;1.63;100.00;102227.25;5278478;28;20043;-83
2022/03/10 02:53:48;;;;;;;39.30;23.75;;;;;;;1.65;100.00;102228.94;5281654;28;20045;-84
2022/03/10 02:56:19;;;;;;;37.22;22.38;;;;;;;1.60;100.00;102214.22;5277376;28;20065;-83
2022/03/10 02:58:51;;;;;;;39.45;22.75;;;;;;;1.60;100.00;102212.44;5277908;28;20444;-84
2022/03/10 03:01:22;;;;;;;35.92;22.95;;;;;;;1.62;100.00;102218.50;5272952;28;20057;-83
2022/03/10 03:03:54;;;;;;;38.60;22.83;;;;;;;1.66;100.00;102237.66;5278262;28;20029;-84
2022/03/10 03:06:25;;;;;;;40.33;23.65;;;;;;;1.61;100.00;102227.28;5278815;28;20389;-84
2022/03/10 03:08:56;;;;;;;38.90;23.30;;;;;;;1.60;100.00;102222.09;5279694;28;20574;-83
2022/03/10 03:11:27;;;;;;;37.05;22.05;;;;;;;1.62;100.00;102222.91;5277433;28;20025;-84
2022/03/10 03:14:01;;;;;;;42.17;23.60;;;;;;;1.61;100.00;102226.44;5273767;28;20041;-83
2022/03/10 03:16:32;;;;;;;37.88;23.02;;;;;;;1.60;100.00;102224.75;5280650;28;20017;-84
2022/03/10 03:19:03;;;;;;;36.47;22.45;;;;;;;1.59;100.00;102234.38;5280391;28;34880;-84
2022/03/10 03:21:35;;;;;;;38.78;23.73;;;;;;;1.52;100.00;102227.59;5281810;28;20112;-83
2022/03/10 03:24:06;;;;;;;38.25;23.42;;;;;;;1.58;100.00;102240.56;5281072;28;20074;-84
2022/03/10 03:26:37;;;;;;;38.85;23.08;;;;;;;1.56;100.00;102237.13;5283813;28;20035;-83
2022/03/10 03:29:09;;;;;;;38.13;22.40;;;;;;;1.48;100.00;102237.38;5281827;28;20474;-83
2022/03/10 03:31:40;;;;;;;38.17;23.55;;;;;;;1.42;100.00;102237.56;5284393;28;20029;-83
2022/03/10 03:34:12;;;;;;;38.25;23.52;;;;;;;1.37;100.00;102242.13;5282661;28;20039;-83
2022/03/10 03:36:44;;;;;;;38.28;22.50;;;;;;;1.39;100.00;102245.56;5279156;28;20103;-83
2022/03/10 03:39:16;;;;;;;40.28;23.70;;;;;;;1.35;100.00;102240.44;5284355;28;20025;-84
2022/03/10 03:41:47;;;;;;;39.75;23.67;;;;;;;1.38;100.00;102242.97;5281551;28;20025;-84
2022/03/10 03:44:18;;;;;;;41.13;23.85;;;;;;;1.30;100.00;102232.72;5263538;28;20028;-84
2022/03/10 03:46:50;;;;;;;40.25;23.65;;;;;;;1.40;100.00;102236.75;5278653;28;20407;-83
2022/03/10 03:49:21;;;;;;;37.88;22.73;;;;;;;1.40;100.00;102249.88;5281126;28;20099;-83
2022/03/10 03:51:52;;;;;;;50.55;25.25;;;;;;;1.42;100.00;102255.97;5267045;28;20036;-83
2022/03/10 03:54:24;;;;;;;38.05;23.05;;;;;;;1.35;100.00;102246.56;5276846;28;20458;-83
2022/03/10 03:56:55;;;;;;;37.10;22.48;;;;;;;1.36;100.00;102258.78;5283988;28;20453;-82
2022/03/10 03:59:27;;;;;;;37.17;23.30;;;;;;;1.29;100.00;102258.13;5266993;28;20112;-83
2022/03/10 04:01:58;;;;;;;36.38;22.17;;;;;;;1.19;100.00;102254.03;5284990;28;20032;-83
2022/03/10 04:04:30;;;;;;;36.53;22.45;;;;;;;1.21;100.00;102269.78;5283234;28;41735;-83
2022/03/10 04:07:01;;;;;;;41.00;23.23;;;;;;;1.15;100.00;102257.69;5284845;28;20035;-83
2022/03/10 04:09:32;;;;;;;39.72;23.08;;;;;;;1.09;100.00;102255.25;5283254;28;20039;-82
2022/03/10 04:12:04;;;;;;;41.20;23.90;;;;;;;1.13;100.00;102265.63;5284059;28;20066;-83
2022/03/10 04:14:36;;;;;;;41.00;22.17;;;;;;;0.97;100.00;102269.63;5283657;28;20039;-83
2022/03/10 04:17:07;;;;;;;40.15;22.70;;;;;;;1.03;100.00;102266.78;5262792;28;20112;-83
2022/03/10 04:19:38;;;;;;;38.65;22.77;;;;;;;0.92;100.00;102275.00;5282308;28;20407;-83
2022/03/10 04:22:09;;;;;;;37.88;22.88;;;;;;;0.92;100.00;102271.53;5283569;28;41604;-83
2022/03/10 04:24:41;;;;;;;38.47;23.50;;;;;;;0.85;100.00;102268.22;5284592;28;20029;-83
2022/03/10 04:27:12;;;;;;;35.38;22.33;;;;;;;0.83;100.00;102272.66;5284877;28;20028;-83
2022/03/10 04:29:44;;;;;;;36.70;21.42;;;;;;;0.78;100.00;102268.44;5280879;28;20040;-83
2022/03/10 04:32:15;;;;;;;40.38;22.75;;;;;;;0.68;100.00;102260.81;5265035;28;20028;-83
2022/03/10 04:34:47;;;;;;;38.58;22.52;;;;;;;0.77;100.00;102266.72;5283619;28;20128;-83
2022/03/10 04:37:18;;;;;;;40.50;22.65;;;;;;;0.77;100.00;102269.34;5281078;28;20045;-81
2022/03/10 04:39:49;;;;;;;37.55;22.10;;;;;;;0.81;100.00;102278.84;5282969;28;20089;-81
2022/03/10 04:42:20;;;;;;;41.00;23.50;;;;;;;0.79;100.00;102268.41;5281811;28;20028;-81
2022/03/10 04:44:52;;;;;;;40.50;22.85;;;;;;;0.78;100.00;102268.44;5282258;28;20017;-82
2022/03/10 04:47:23;;;;;;;39.50;23.13;;;;;;;0.74;100.00;102272.94;5282629;28;20160;-81
2022/03/10 04:49:56;;;;;;;36.33;21.42;;;;;;;0.64;100.00;102261.81;5283619;28;20025;-82
2022/03/10 04:52:31;;;;;;;33.00;21.75;;;;;;;0.73;100.00;102264.16;5282112;28;20021;-81
2022/03/10 04:55:03;;;;;;;35.63;22.27;;;;;;;0.63;100.00;102269.72;5262429;28;20500;-82
2022/03/10 04:57:37;;;;;;;39.47;21.83;;;;;;;0.61;100.00;102269.78;5282569;28;20375;-82
2022/03/10 05:00:18;;;;;;;38.45;22.45;;;;;;;0.60;100.00;102270.69;5282026;28;20056;-81
2022/03/10 05:02:49;;;;;;;41.53;22.48;;;;;;;0.58;100.00;102264.63;5277725;28;20033;-82
2022/03/10 05:05:21;;;;;;;37.40;22.30;;;;;;;0.52;100.00;102268.25;5281668;28;20083;-82
2022/03/10 05:07:52;;;;;;;38.20;22.13;;;;;;;0.52;100.00;102276.13;5279957;28;20469;-82
2022/03/10 05:10:24;;;;;;;35.20;21.55;;;;;;;0.42;100.00;102264.19;5281736;28;20021;-82
2022/03/10 05:12:57;;;;;;;39.47;22.35;;;;;;;0.49;100.00;102272.75;5282882;28;20040;-82
2022/03/10 05:15:31;;;;;;;38.88;21.50;;;;;;;0.40;100.00;102279.09;5280673;28;20040;-81
2022/03/10 05:18:04;;;;;;;40.78;22.42;;;;;;;0.41;100.00;102272.09;5284100;28;20031;-81
2022/03/10 05:20:35;;;;;;;34.10;20.65;;;;;;;0.31;100.00;102277.59;5264076;28;20420;-81
2022/03/10 05:23:07;;;;;;;37.63;22.27;;;;;;;0.35;100.00;102289.75;5284293;28;20104;-82
2022/03/10 05:25:40;;;;;;;37.95;22.60;;;;;;;0.22;100.00;102271.75;5263682;28;20032;-81
2022/03/10 05:28:13;;;;;;;35.30;21.15;;;;;;;0.22;100.00;102283.09;5281962;28;20047;-81
2022/03/10 05:30:45;;;;;;;39.40;23.65;;;;;;;0.16;100.00;102273.63;5282015;28;20032;-81
2022/03/10 05:33:16;;;;;;;32.60;21.17;;;;;;;0.15;100.00;102269.25;5282444;28;20413;-81
2022/03/10 05:35:47;;;;;;;34.28;20.52;;;;;;;0.16;100.00;102278.00;5264077;28;20028;-81
2022/03/10 05:38:19;;;;;;;35.38;22.17;;;;;;;0.19;100.00;102277.91;5282894;28;20025;-81
2022/03/10 05:40:50;;;;;;;37.60;23.00;;;;;;;0.18;100.00;102276.22;5280686;28;25300;-81
2022/03/10 05:43:21;;;;;;;33.55;21.23;;;;;;;0.24;100.00;102276.03;5280282;28;20025;-81
2022/03/10 05:45:52;;;;;;;43.00;22.60;;;;;;;0.24;100.00;102275.19;5282595;28;20028;-81
2022/03/10 05:48:24;;;;;;;38.17;21.23;;;;;;;0.21;100.00;102265.63;5279908;28;20111;-81
2022/03/10 05:50:56;;;;;;;34.78;21.02;;;;;;;0.17;100.00;102256.94;5280576;28;40268;-82
2022/03/10 05:53:27;;;;;;;37.40;21.55;;;;;;;0.26;100.00;102276.84;5284218;28;20029;-82
2022/03/10 05:55:58;;;;;;;38.17;21.25;;;;;;;0.24;100.00;102289.16;5264282;28;20059;-83
2022/03/10 05:58:30;;;;;;;36.75;22.08;;;;;;;0.20;100.00;102270.91;5282031;28;20473;-83
2022/03/10 06:01:01;;;;;;;35.72;21.90;;;;;;;0.30;100.00;102285.50;5282093;28;20493;-83
2022/03/10 06:03:32;;;;;;;35.70;21.63;;;;;;;0.33;100.00;102273.19;5280185;28;20104;-83
2022/03/10 06:06:03;;;;;;;34.80;20.92;;;;;;;0.38;100.00;102280.91;5279930;28;20025;-83
2022/03/10 06:08:35;;;;;;;36.70;21.67;;;;;;;0.46;100.00;102276.31;5280510;28;20100;-83
2022/03/10 06:11:07;;;;;;;34.65;20.85;;;;;;;0.44;100.00;102269.38;5279065;28;20033;-82
2022/03/10 06:13:38;;;;;;;38.28;21.95;;;;;;;0.53;100.00;102271.78;5261259;28;20450;-83
2022/03/10 06:16:10;;;;;;;35.83;22.08;;;;;;;0.57;100.00;102276.03;5262202;28;20116;-83
2022/03/10 06:18:41;;;;;;;37.72;21.88;;;;;;;0.60;100.00;102273.31;5259197;28;20048;-82
2022/03/10 06:21:13;;;;;;;34.22;20.90;;;;;;;0.58;100.00;102262.00;5273698;28;20370;-83
2022/03/10 06:23:44;;;;;;;41.60;23.83;;;;;;;0.60;100.00;102264.56;5261748;28;20116;-83
2022/03/10 06:26:16;;;;;;;36.25;21.30;;;;;;;0.69;100.00;102272.19;5279710;28;20032;-83
2022/03/10 06:28:47;;;;;;;37.03;21.38;;;;;;;0.56;100.00;102258.53;5280392;28;20029;-82
2022/03/10 06:31:19;;;;;;;37.33;21.30;;;;;;;0.77;100.00;102279.84;5279447;28;20493;-83
2022/03/10 06:33:51;;;;;;;37.42;20.85;;;;;;;0.64;100.00;102243.44;5263472;28;20025;-83
2022/03/10 06:36:23;;;;;;;38.88;21.92;;;;;;;0.97;100.00;102268.78;5283205;28;20481;-83
2022/03/10 06:38:55;;;;;;;36.55;20.60;;;;;;;0.97;100.00;102253.84;5282847;28;20064;-83
2022/03/10 06:41:26;;;;;;;34.78;21.48;;;;;;;1.15;100.00;102257.69;5282512;28;20099;-83
2022/03/10 06:43:58;;;;;;;38.72;22.05;;;;;;;1.62;100.00;102271.09;5280734;28;20473;-83
2022/03/10 06:46:29;;;;;;;37.95;22.23;;;;;;;2.03;100.00;102268.88;5263058;28;20037;-83
2022/03/10 06:49:00;;;;;;;39.60;21.77;;;;;;;2.57;100.00;102289.84;5263572;28;20405;-83
2022/03/10 06:51:32;;;;;;;39.20;22.45;;;;;;;3.01;100.00;102288.19;5279654;28;20040;-83
2022/03/10 06:54:03;;;;;;;34.63;20.33;;;;;;;3.58;100.00;102285.13;5264758;28;20108;-83
2022/03/10 06:56:34;;;;;;;37.60;21.00;;;;;;;3.96;100.00;102291.47;5267810;28;20103;-83
2022/03/10 06:59:06;;;;;;;37.78;21.35;;;;;;;4.41;100.00;102294.84;5285840;28;20489;-84
2022/03/10 07:01:37;;;;;;;32.47;21.17;;;;;;;4.53;100.00;102296.09;5285815;28;20057;-83
2022/03/10 07:04:11;;;;;;;33.10;20.55;;;;;;;4.58;100.00;102301.19;5283948;28;20178;-82
2022/03/10 07:06:42;;;;;;;33.25;21.60;;;;;;;4.37;100.00;102302.97;5285286;28;20374;-82
2022/03/10 07:09:14;;;;;;;32.05;21.48;;;;;;;4.23;100.00;102299.13;5285874;28;20135;-82
2022/03/10 07:11:46;;;;;;;38.33;21.77;;;;;;;4.60;100.00;102304.59;5284075;28;20052;-83
2022/03/10 07:14:17;;;;;;;33.33;21.95;;;;;;;5.31;100.00;102304.88;5284119;28;20033;-83
2022/03/10 07:16:48;;;;;;;35.80;22.17;;;;;;;5.94;100.00;102285.91;5285919;28;20025;-83
2022/03/10 07:19:20;;;;;;;37.58;21.15;;;;;;;6.77;100.00;102302.88;5284857;28;20029;-83
2022/03/10 07:21:51;;;;;;;31.15;20.33;;;;;;;7.37;100.00;102296.09;5284200;28;20028;-83
2022/03/10 07:24:22;;;;;;;32.28;19.95;;;;;;;7.99;100.00;102292.56;5282050;28;20067;-83
2022/03/10 07:26:54;;;;;;;33.65;21.42;;;;;;;8.51;92.24;102308.09;5278055;28;20033;-83
2022/03/10 07:29:25;;;;;;;32.50;21.38;;;;;;;9.14;86.04;102300.69;5270022;28;20117;-83
2022/03/10 07:31:57;;;;;;;32.28;20.50;;;;;;;9.72;79.92;102304.03;5273863;28;20112;-83
2022/03/10 07:34:29;;;;;;;34.45;21.15;;;;;;;9.86;68.57;102303.97;5247090;28;20116;-83
2022/03/10 07:37:00;;;;;;;31.65;20.58;;;;;;;10.34;65.35;102303.47;5264648;28;20513;-83
2022/03/10 07:39:31;;;;;;;30.73;20.48;;;;;;;11.08;64.23;102291.16;5257692;28;20032;-86
2022/03/10 07:42:03;;;;;;;32.13;21.17;;;;;;;11.33;58.22;102300.91;5286342;28;20013;-87
2022/03/10 07:44:36;;;;;;;32.58;20.70;;;;;;;11.81;56.10;102297.38;5287090;28;20056;-85
2022/03/10 07:47:07;;;;;;;32.60;22.02;;;;;;;11.97;53.82;102296.25;5288312;28;20028;-86
2022/03/10 07:49:38;;;;;;;31.05;21.75;;;;;;;12.53;51.51;102287.53;5268890;28;20017;-86
2022/03/10 07:52:10;;;;;;;30.70;22.17;;;;;;;13.30;49.26;102287.59;5287505;28;20532;-87
2022/03/10 07:54:41;;;;;;;37.38;22.67;;;;;;;13.91;47.79;102292.41;5287202;28;20064;-86
2022/03/10 07:57:12;;;;;;;30.05;20.85;;;;;;;13.51;46.09;102293.06;5287418;28;20032;-87
2022/03/10 07:59:43;;;;;;;29.30;21.20;;;;;;;14.55;44.52;102295.94;5286594;28;41725;-86
2022/03/10 08:02:15;;;;;;;31.63;21.05;;;;;;;15.27;42.63;102289.63;5287188;28;20083;-85
2022/03/10 08:04:46;;;;;;;30.27;21.33;;;;;;;15.64;40.87;102283.59;5286949;28;20017;-84
2022/03/10 08:07:18;;;;;;;31.67;21.60;;;;;;;16.19;40.53;102288.38;5284874;28;20025;-82
2022/03/10 08:09:49;;;;;;;30.63;22.05;;;;;;;16.47;38.41;102288.47;5285167;28;20025;-80
2022/03/10 08:12:21;;;;;;;31.13;21.42;;;;;;;17.03;37.48;102283.19;5284774;28;20391;-80
2022/03/10 08:14:52;;;;;;;29.92;22.80;;;;;;;17.37;35.84;102295.06;5285301;28;20032;-79
2022/03/10 08:17:25;;;;;;;32.60;21.85;;;;;;;17.62;35.89;102298.00;5285477;28;20017;-79
2022/03/10 08:19:57;;;;;;;28.20;21.95;;;;;;;18.39;34.24;102294.75;5286934;28;20020;-80
2022/03/10 08:22:28;;;;;;;30.20;21.63;;;;;;;18.72;32.83;102298.50;5286026;28;20025;-80
2022/03/10 08:24:59;;;;;;;29.30;20.80;;;;;;;18.98;32.24;102301.19;5268492;28;20035;-79
2022/03/10 08:27:30;;;;;;;28.58;21.80;;;;;;;19.36;31.18;102296.25;5284789;28;20060;-80
2022/03/10 08:30:03;;;;;;;27.17;21.80;;;;;;;20.04;30.87;102294.34;5285106;28;20021;-80
2022/03/10 08:32:34;;;;;;;31.92;22.42;;;;;;;20.50;30.20;102291.06;5284532;28;20551;-81
2022/03/10 08:35:06;;;;;;;29.58;21.30;;;;;;;21.02;28.98;102293.28;5266344;28;20044;-81
2022/03/10 08:37:39;;;;;;;26.92;21.55;;;;;;;20.67;28.63;102292.72;5284277;28;20060;-80
2022/03/10 08:40:18;;;;;;;30.10;21.63;;;;;;;20.78;29.13;102286.06;5283921;28;20029;-80
2022/03/10 08:42:51;;;;;;;28.13;21.83;;;;;;;21.66;28.09;102287.66;5265802;28;20024;-81
2022/03/10 08:45:26;;;;;;;27.23;22.38;;;;;;;20.88;28.80;102272.28;5284225;28;20047;-80
2022/03/10 08:47:57;;;;;;;29.13;21.55;;;;;;;22.18;26.97;102283.31;5283049;28;20385;-81
2022/03/10 08:50:29;;;;;;;28.67;20.88;;;;;;;22.60;26.14;102278.34;5283707;28;20031;-81
2022/03/10 08:53:00;;;;;;;30.38;21.20;;;;;;;20.90;26.82;102278.41;5265561;28;20581;-81
2022/03/10 08:55:31;;;;;;;29.48;21.48;;;;;;;20.70;27.15;102284.22;5283560;28;20028;-80
2022/03/10 08:58:03;;;;;;;28.25;21.15;;;;;;;22.36;26.17;102276.72;5284119;28;20024;-81
2022/03/10 09:00:34;;;;;;;28.13;20.30;;;;;;;22.05;24.90;102278.53;5284237;28;20033;-81
2022/03/10 09:03:05;;;;;;;28.95;20.83;;;;;;;22.82;24.88;102281.97;5283428;28;20033;-80
2022/03/10 09:05:37;;;;;;;26.27;20.93;;;;;;;23.74;24.23;102280.53;5265327;28;20029;-81
2022/03/10 09:08:09;;;;;;;27.98;20.77;;;;;;;24.21;23.32;102275.47;5265816;28;20795;-79
2022/03/10 09:10:40;;;;;;;27.92;20.65;;;;;;;23.98;24.25;102262.91;5284039;28;20005;-79
2022/03/10 09:13:12;;;;;;;29.75;21.40;;;;;;;23.92;23.88;102272.72;5265274;28;20086;-80
2022/03/10 09:15:45;;;;;;;29.73;20.98;;;;;;;25.55;22.67;102269.59;5283447;28;20028;-80
2022/03/10 09:18:16;;;;;;;28.88;20.55;;;;;;;26.15;21.80;102253.22;5282194;28;20047;-81
2022/03/10 09:20:48;;;;;;;27.35;20.90;;;;;;;24.25;22.72;102258.53;5283593;28;20021;-80
2022/03/10 09:23:19;;;;;;;29.83;21.73;;;;;;;24.41;22.35;102257.38;5283634;28;20033;-80
2022/03/10 09:25:50;;;;;;;26.02;20.45;;;;;;;25.07;23.08;102247.81;5283365;28;20024;-81
2022/03/10 09:28:22;;;;;;;24.50;20.00;;;;;;;26.74;21.22;102259.63;5283412;28;20523;-81
2022/03/10 09:30:53;;;;;;;31.35;20.42;;;;;;;26.91;21.14;102253.66;5283779;28;20067;-80
2022/03/10 09:33:25;;;;;;;24.58;19.67;;;;;;;27.98;20.10;102242.03;5282943;28;20035;-81
2022/03/10 09:36:00;;;;;;;24.63;21.05;;;;;;;25.98;21.55;102243.78;5282884;28;20178;-80
2022/03/10 09:38:34;;;;;;;27.00;20.65;;;;;;;25.67;21.08;102250.72;5264389;28;20031;-81
2022/03/10 09:41:05;;;;;;;24.35;19.05;;;;;;;24.43;22.92;102243.53;5280066;28;20420;-81
2022/03/10 09:43:38;;;;;;;23.67;19.20;;;;;;;27.25;21.31;102233.25;5282533;28;20052;-81
2022/03/10 09:46:10;;;;;;;24.95;20.17;;;;;;;25.57;21.57;102237.47;5282325;28;20140;-81
2022/03/10 09:48:41;;;;;;;26.15;19.67;;;;;;;27.69;20.72;102236.16;5282569;28;20025;-81
2022/03/10 09:51:13;;;;;;;28.95;20.75;;;;;;;28.55;20.00;102231.75;5282860;28;20300;-81
2022/03/10 09:53:44;;;;;;;21.95;19.30;;;;;;;28.53;19.82;102227.53;5283231;28;20138;-80
2022/03/10 09:56:19;;;;;;;21.60;18.63;;;;;;;28.95;19.30;102228.47;5264558;28;20025;-81
2022/03/10 09:58:52;;;;;;;;;;;;;;;31.40;18.18;102225.22;5282846;28;20045;-80
2022/03/10 10:01:23;;;;;;;29.67;19.90;;;;;;;30.44;17.94;102217.59;5282964;28;20026;-80
2022/03/10 10:03:54;;;;;;;26.77;19.42;;;;;;;29.48;18.35;102228.81;5263295;28;20382;-81
2022/03/10 10:06:26;;;;;;;29.63;19.60;;;;;;;29.77;18.13;102222.41;5261974;28;20026;-81
2022/03/10 10:08:57;;;;;;;25.77;20.20;;;;;;;29.87;18.33;102223.72;5243147;28;20277;-81
2022/03/10 10:11:31;;;;;;;25.40;21.02;;;;;;;29.47;18.99;102210.63;5261425;28;20796;-81
2022/03/10 10:14:02;;;;;;;22.15;19.40;;;;;;;30.49;17.84;102215.78;5280257;28;20029;-81
2022/03/10 10:16:46;;;;;;;23.48;19.63;;;;;;;33.23;16.84;102213.38;5279407;28;20029;-81
2022/03/10 10:19:17;;;;;;;21.15;18.90;;;;;;;32.21;17.30;102214.66;5282496;28;20013;-81
2022/03/10 10:22:07;;;;;;;25.20;18.70;;;;;;;33.50;16.13;102213.31;5282390;28;20028;-81
2022/03/10 10:25:00;;;;;;;21.40;18.27;;;;;;;30.96;16.42;102212.06;5282256;28;20029;-81
2022/03/10 10:27:32;;;;;;;20.50;17.92;;;;;;;31.47;16.96;102204.69;5263451;28;20021;-81
2022/03/10 10:30:06;;;;;;;21.77;17.50;;;;;;;31.13;17.05;102203.81;5281642;28;20096;-81
2022/03/10 10:32:44;;;;;;;21.88;18.27;;;;;;;29.77;18.37;102205.09;5281831;28;20049;-81
2022/03/10 10:35:20;;;;;;;23.92;19.60;;;;;;;30.44;17.59;102201.91;5264099;28;20033;-81
2022/03/10 10:37:55;;;;;;;20.65;18.40;;;;;;;33.34;15.77;102199.38;5281624;28;20037;-81
2022/03/10 10:40:27;;;;;;;24.98;19.65;;;;;;;33.08;16.07;102201.06;5281941;28;20025;-81
2022/03/10 10:43:02;;;;;;;21.50;17.40;;;;;;;32.52;16.55;102201.28;5282219;28;20163;-81
2022/03/10 10:45:36;;;;;;;19.48;17.13;;;;;;;31.21;17.50;102183.31;5282407;28;20028;-81
2022/03/10 10:48:10;;;;;;;25.35;17.35;;;;;;;31.95;16.68;102194.13;5282478;28;20033;-81
2022/03/10 10:50:44;;;;;;;23.52;17.50;;;;;;;30.64;17.78;102193.22;5282282;28;20025;-81
2022/03/10 10:53:31;;;;;;;21.13;17.13;;;;;;;32.57;17.28;102181.16;5263820;28;20622;-81
2022/03/10 10:56:02;;;;;;;23.45;18.48;;;;;;;31.61;17.22;102183.16;5281601;28;20412;-81
2022/03/10 10:58:34;;;;;;;23.25;19.60;;;;;;;33.38;15.78;102182.25;5282242;28;20043;-82
2022/03/10 11:01:06;;;;;;;22.85;18.35;;;;;;;34.31;14.99;102181.78;5281805;28;20437;-81
2022/03/10 11:03:37;;;;;;;22.52;17.52;;;;;;;33.12;15.85;102177.31;5263557;28;20124;-81
2022/03/10 11:06:08;;;;;;;23.08;16.23;;;;;;;31.46;16.99;102175.44;5263695;28;20060;-81
2022/03/10 11:08:40;;;;;;;19.05;16.88;;;;;;;32.50;15.99;102164.78;5263766;28;20024;-82
2022/03/10 11:11:11;;;;;;;20.20;16.75;;;;;;;33.05;15.92;102171.19;5281935;28;20048;-81
2022/03/10 11:13:43;;;;;;;20.95;15.48;;;;;;;34.15;15.81;102168.94;5280580;28;41533;-82
2022/03/10 11:16:18;;;;;;;17.85;14.43;;;;;;;33.38;16.11;102171.19;5281788;28;20085;-82
2022/03/10 11:18:51;;;;;;;;;;;;;;;35.03;15.37;102166.19;5282259;28;20056;-81
2022/03/10 11:21:34;;;;;;;19.42;15.73;;;;;;;31.82;16.54;102164.16;5282598;28;19913;-81
2022/03/10 11:24:18;;;;;;;18.00;16.00;;;;;;;34.90;15.25;102157.56;5281825;28;20032;-81
2022/03/10 11:27:16;;;;;;;18.25;15.45;;;;;;;35.41;15.00;102163.13;5281078;28;20493;-81
2022/03/10 11:29:53;;;;;;;19.42;15.65;;;;;;;33.28;16.48;102164.50;5281270;28;20099;-81
2022/03/10 11:32:30;;;;;;;19.05;15.95;;;;;;;32.53;16.89;102167.03;5281674;28;20546;-81
2022/03/10 11:35:02;;;;;;;18.52;16.55;;;;;;;31.35;16.97;102161.72;5258206;28;20061;-82
2022/03/10 11:37:40;;;;;;;21.52;17.05;;;;;;;31.45;18.22;102148.97;5260230;28;20041;-81